sensor_id;sensor_type;location;lat;lon;timestamp;P1;durP1;ratioP1;P2;durP2;ratioP2
44816;SDS011;30529;53.570;9.964;2023-07-24T00:01:35;2.87;;;2.40;;
44816;SDS011;30529;53.570;9.964;2023-07-24T00:04:01;3.40;;;2.93;;
44816;SDS011;30529;53.570;9.964;2023-07-24T00:06:27;3.83;;;2.77;;
44816;SDS011;30529;53.570;9.964;2023-07-24T00:08:53;2.90;;;2.60;;
44816;SDS011;30529;53.570;9.964;2023-07-24T00:11:19;3.20;;;2.60;;
44816;SDS011;30529;53.570;9.964;2023-07-24T00:13:45;6.20;;;3.07;;
44816;SDS011;30529;53.570;9.964;2023-07-24T00:16:11;4.37;;;3.07;;
44816;SDS011;30529;53.570;9.964;2023-07-24T00:18:37;3.93;;;2.73;;
44816;SDS011;30529;53.570;9.964;2023-07-24T00:21:03;6.00;;;2.90;;
44816;SDS011;30529;53.570;9.964;2023-07-24T00:23:29;5.20;;;2.80;;
44816;SDS011;30529;53.570;9.964;2023-07-24T00:25:55;4.03;;;2.50;;
44816;SDS011;30529;53.570;9.964;2023-07-24T00:28:21;3.77;;;2.87;;
44816;SDS011;30529;53.570;9.964;2023-07-24T00:30:47;4.23;;;2.87;;
44816;SDS011;30529;53.570;9.964;2023-07-24T00:33:13;3.17;;;2.70;;
44816;SDS011;30529;53.570;9.964;2023-07-24T00:35:39;3.77;;;2.90;;
44816;SDS011;30529;53.570;9.964;2023-07-24T00:38:05;3.17;;;2.63;;
44816;SDS011;30529;53.570;9.964;2023-07-24T00:40:31;3.27;;;2.80;;
44816;SDS011;30529;53.570;9.964;2023-07-24T00:42:57;2.93;;;2.50;;
44816;SDS011;30529;53.570;9.964;2023-07-24T00:45:23;5.27;;;3.17;;
44816;SDS011;30529;53.570;9.964;2023-07-24T00:47:50;3.80;;;2.63;;
44816;SDS011;30529;53.570;9.964;2023-07-24T00:50:16;5.17;;;2.87;;
44816;SDS011;30529;53.570;9.964;2023-07-24T00:52:43;5.20;;;3.37;;
44816;SDS011;30529;53.570;9.964;2023-07-24T00:55:09;3.57;;;3.00;;
44816;SDS011;30529;53.570;9.964;2023-07-24T00:57:37;4.30;;;3.30;;
44816;SDS011;30529;53.570;9.964;2023-07-24T01:00:11;4.13;;;3.30;;
44816;SDS011;30529;53.570;9.964;2023-07-24T01:02:37;4.17;;;3.40;;
44816;SDS011;30529;53.570;9.964;2023-07-24T01:05:04;4.20;;;2.90;;
44816;SDS011;30529;53.570;9.964;2023-07-24T01:07:30;4.33;;;3.10;;
44816;SDS011;30529;53.570;9.964;2023-07-24T01:09:57;3.57;;;2.67;;
44816;SDS011;30529;53.570;9.964;2023-07-24T01:12:26;3.40;;;2.97;;
44816;SDS011;30529;53.570;9.964;2023-07-24T01:17:54;3.93;;;2.80;;
44816;SDS011;30529;53.570;9.964;2023-07-24T01:20:49;4.33;;;2.90;;
44816;SDS011;30529;53.570;9.964;2023-07-24T01:23:29;4.83;;;3.10;;
44816;SDS011;30529;53.570;9.964;2023-07-24T01:26:20;3.40;;;2.80;;
44816;SDS011;30529;53.570;9.964;2023-07-24T01:28:49;3.30;;;3.00;;
44816;SDS011;30529;53.570;9.964;2023-07-24T01:31:15;6.37;;;2.80;;
44816;SDS011;30529;53.570;9.964;2023-07-24T01:33:43;3.77;;;2.77;;
44816;SDS011;30529;53.570;9.964;2023-07-24T01:36:09;4.70;;;3.17;;
44816;SDS011;30529;53.570;9.964;2023-07-24T01:38:36;6.10;;;2.80;;
44816;SDS011;30529;53.570;9.964;2023-07-24T01:41:04;4.60;;;3.00;;
44816;SDS011;30529;53.570;9.964;2023-07-24T01:43:30;4.23;;;3.10;;
44816;SDS011;30529;53.570;9.964;2023-07-24T01:45:57;4.87;;;3.20;;
44816;SDS011;30529;53.570;9.964;2023-07-24T01:48:24;3.57;;;2.70;;
44816;SDS011;30529;53.570;9.964;2023-07-24T01:50:50;5.93;;;3.03;;
44816;SDS011;30529;53.570;9.964;2023-07-24T01:53:16;12.40;;;3.47;;
44816;SDS011;30529;53.570;9.964;2023-07-24T01:55:42;3.10;;;2.67;;
44816;SDS011;30529;53.570;9.964;2023-07-24T01:58:08;4.10;;;3.10;;
44816;SDS011;30529;53.570;9.964;2023-07-24T02:00:34;3.37;;;2.90;;
44816;SDS011;30529;53.570;9.964;2023-07-24T02:03:00;4.40;;;3.00;;
44816;SDS011;30529;53.570;9.964;2023-07-24T02:05:26;3.50;;;3.13;;
44816;SDS011;30529;53.570;9.964;2023-07-24T02:07:53;3.80;;;3.23;;
44816;SDS011;30529;53.570;9.964;2023-07-24T02:10:19;4.83;;;3.10;;
44816;SDS011;30529;53.570;9.964;2023-07-24T02:12:45;6.90;;;3.20;;
44816;SDS011;30529;53.570;9.964;2023-07-24T02:15:11;4.90;;;2.80;;
44816;SDS011;30529;53.570;9.964;2023-07-24T02:17:37;4.10;;;3.00;;
44816;SDS011;30529;53.570;9.964;2023-07-24T02:20:04;3.87;;;3.07;;
44816;SDS011;30529;53.570;9.964;2023-07-24T02:22:31;3.50;;;3.20;;
44816;SDS011;30529;53.570;9.964;2023-07-24T02:24:57;6.23;;;3.13;;
44816;SDS011;30529;53.570;9.964;2023-07-24T02:27:27;3.43;;;3.10;;
44816;SDS011;30529;53.570;9.964;2023-07-24T02:29:54;4.03;;;3.30;;
44816;SDS011;30529;53.570;9.964;2023-07-24T02:32:20;3.57;;;3.17;;
44816;SDS011;30529;53.570;9.964;2023-07-24T02:34:50;3.30;;;3.00;;
44816;SDS011;30529;53.570;9.964;2023-07-24T02:37:17;4.53;;;3.23;;
44816;SDS011;30529;53.570;9.964;2023-07-24T02:39:44;4.57;;;3.40;;
44816;SDS011;30529;53.570;9.964;2023-07-24T02:42:11;6.23;;;3.93;;
44816;SDS011;30529;53.570;9.964;2023-07-24T02:44:37;6.43;;;3.60;;
44816;SDS011;30529;53.570;9.964;2023-07-24T02:47:03;4.10;;;3.43;;
44816;SDS011;30529;53.570;9.964;2023-07-24T02:49:29;4.43;;;3.50;;
44816;SDS011;30529;53.570;9.964;2023-07-24T02:51:55;4.70;;;3.73;;
44816;SDS011;30529;53.570;9.964;2023-07-24T02:54:21;5.43;;;3.47;;
44816;SDS011;30529;53.570;9.964;2023-07-24T02:56:47;3.80;;;3.23;;
44816;SDS011;30529;53.570;9.964;2023-07-24T02:59:13;4.97;;;3.90;;
44816;SDS011;30529;53.570;9.964;2023-07-24T03:01:39;3.53;;;3.23;;
44816;SDS011;30529;53.570;9.964;2023-07-24T03:04:05;5.70;;;3.60;;
44816;SDS011;30529;53.570;9.964;2023-07-24T03:06:31;3.90;;;3.43;;
44816;SDS011;30529;53.570;9.964;2023-07-24T03:08:57;4.20;;;3.80;;
44816;SDS011;30529;53.570;9.964;2023-07-24T03:11:23;4.73;;;3.50;;
44816;SDS011;30529;53.570;9.964;2023-07-24T03:13:49;3.93;;;3.43;;
44816;SDS011;30529;53.570;9.964;2023-07-24T03:16:15;4.17;;;3.33;;
44816;SDS011;30529;53.570;9.964;2023-07-24T03:18:46;4.63;;;3.20;;
44816;SDS011;30529;53.570;9.964;2023-07-24T03:21:12;5.77;;;3.43;;
44816;SDS011;30529;53.570;9.964;2023-07-24T03:23:38;3.73;;;3.33;;
44816;SDS011;30529;53.570;9.964;2023-07-24T03:26:04;8.00;;;3.40;;
44816;SDS011;30529;53.570;9.964;2023-07-24T03:28:30;5.60;;;3.37;;
44816;SDS011;30529;53.570;9.964;2023-07-24T03:30:56;5.00;;;3.30;;
44816;SDS011;30529;53.570;9.964;2023-07-24T03:33:22;4.73;;;3.60;;
44816;SDS011;30529;53.570;9.964;2023-07-24T03:35:48;4.97;;;3.73;;
44816;SDS011;30529;53.570;9.964;2023-07-24T03:38:14;3.93;;;3.53;;
44816;SDS011;30529;53.570;9.964;2023-07-24T03:40:40;4.30;;;3.17;;
44816;SDS011;30529;53.570;9.964;2023-07-24T03:43:06;4.67;;;4.00;;
44816;SDS011;30529;53.570;9.964;2023-07-24T03:45:32;4.77;;;3.43;;
44816;SDS011;30529;53.570;9.964;2023-07-24T03:47:58;4.97;;;3.77;;
44816;SDS011;30529;53.570;9.964;2023-07-24T03:50:24;4.37;;;3.53;;
44816;SDS011;30529;53.570;9.964;2023-07-24T03:52:50;4.83;;;3.80;;
44816;SDS011;30529;53.570;9.964;2023-07-24T03:55:16;4.83;;;3.60;;
44816;SDS011;30529;53.570;9.964;2023-07-24T03:57:42;6.27;;;3.83;;
44816;SDS011;30529;53.570;9.964;2023-07-24T04:00:08;4.73;;;3.67;;
44816;SDS011;30529;53.570;9.964;2023-07-24T04:02:35;8.13;;;3.83;;
44816;SDS011;30529;53.570;9.964;2023-07-24T04:05:01;6.23;;;3.97;;
44816;SDS011;30529;53.570;9.964;2023-07-24T04:07:27;6.97;;;4.00;;
44816;SDS011;30529;53.570;9.964;2023-07-24T04:09:53;5.53;;;4.03;;
44816;SDS011;30529;53.570;9.964;2023-07-24T04:12:19;5.03;;;3.83;;
44816;SDS011;30529;53.570;9.964;2023-07-24T04:14:45;6.17;;;4.40;;
44816;SDS011;30529;53.570;9.964;2023-07-24T04:17:11;4.53;;;3.67;;
44816;SDS011;30529;53.570;9.964;2023-07-24T04:19:37;5.40;;;3.90;;
44816;SDS011;30529;53.570;9.964;2023-07-24T04:22:03;8.07;;;4.30;;
44816;SDS011;30529;53.570;9.964;2023-07-24T04:24:29;6.83;;;4.07;;
44816;SDS011;30529;53.570;9.964;2023-07-24T04:26:55;5.10;;;4.23;;
44816;SDS011;30529;53.570;9.964;2023-07-24T04:29:21;8.23;;;4.40;;
44816;SDS011;30529;53.570;9.964;2023-07-24T04:31:50;5.20;;;4.53;;
44816;SDS011;30529;53.570;9.964;2023-07-24T04:34:16;8.07;;;4.10;;
44816;SDS011;30529;53.570;9.964;2023-07-24T04:36:42;7.50;;;4.40;;
44816;SDS011;30529;53.570;9.964;2023-07-24T04:39:08;5.50;;;4.33;;
44816;SDS011;30529;53.570;9.964;2023-07-24T04:41:34;4.67;;;3.80;;
44816;SDS011;30529;53.570;9.964;2023-07-24T04:44:00;5.07;;;4.10;;
44816;SDS011;30529;53.570;9.964;2023-07-24T04:46:26;7.23;;;4.07;;
44816;SDS011;30529;53.570;9.964;2023-07-24T04:48:52;9.43;;;4.23;;
44816;SDS011;30529;53.570;9.964;2023-07-24T04:51:18;4.97;;;3.97;;
44816;SDS011;30529;53.570;9.964;2023-07-24T04:53:44;6.80;;;4.03;;
44816;SDS011;30529;53.570;9.964;2023-07-24T04:56:10;4.20;;;3.33;;
44816;SDS011;30529;53.570;9.964;2023-07-24T04:58:36;4.33;;;3.40;;
44816;SDS011;30529;53.570;9.964;2023-07-24T05:01:03;3.40;;;3.10;;
44816;SDS011;30529;53.570;9.964;2023-07-24T05:03:30;4.40;;;4.00;;
44816;SDS011;30529;53.570;9.964;2023-07-24T05:05:59;4.10;;;3.70;;
44816;SDS011;30529;53.570;9.964;2023-07-24T05:08:25;4.33;;;3.47;;
44816;SDS011;30529;53.570;9.964;2023-07-24T05:10:55;6.93;;;4.10;;
44816;SDS011;30529;53.570;9.964;2023-07-24T05:13:21;4.97;;;3.70;;
44816;SDS011;30529;53.570;9.964;2023-07-24T05:15:48;5.53;;;3.50;;
44816;SDS011;30529;53.570;9.964;2023-07-24T05:18:14;4.60;;;3.57;;
44816;SDS011;30529;53.570;9.964;2023-07-24T05:20:46;7.47;;;3.70;;
44816;SDS011;30529;53.570;9.964;2023-07-24T05:23:14;4.97;;;4.10;;
44816;SDS011;30529;53.570;9.964;2023-07-24T05:25:40;5.80;;;3.60;;
44816;SDS011;30529;53.570;9.964;2023-07-24T05:28:06;7.00;;;3.47;;
44816;SDS011;30529;53.570;9.964;2023-07-24T05:30:32;4.40;;;3.67;;
44816;SDS011;30529;53.570;9.964;2023-07-24T05:32:58;5.90;;;4.10;;
44816;SDS011;30529;53.570;9.964;2023-07-24T05:35:24;5.43;;;3.53;;
44816;SDS011;30529;53.570;9.964;2023-07-24T05:37:50;5.77;;;4.20;;
44816;SDS011;30529;53.570;9.964;2023-07-24T05:40:16;7.23;;;4.30;;
44816;SDS011;30529;53.570;9.964;2023-07-24T05:42:42;6.10;;;3.80;;
44816;SDS011;30529;53.570;9.964;2023-07-24T05:45:09;6.27;;;3.43;;
44816;SDS011;30529;53.570;9.964;2023-07-24T05:47:40;6.00;;;4.23;;
44816;SDS011;30529;53.570;9.964;2023-07-24T05:50:06;4.13;;;3.73;;
44816;SDS011;30529;53.570;9.964;2023-07-24T05:52:32;6.63;;;3.73;;
44816;SDS011;30529;53.570;9.964;2023-07-24T05:54:58;6.83;;;3.87;;
44816;SDS011;30529;53.570;9.964;2023-07-24T05:57:24;8.27;;;4.10;;
44816;SDS011;30529;53.570;9.964;2023-07-24T05:59:50;5.70;;;3.80;;
44816;SDS011;30529;53.570;9.964;2023-07-24T06:02:17;4.87;;;3.53;;
44816;SDS011;30529;53.570;9.964;2023-07-24T06:04:43;6.33;;;3.60;;
44816;SDS011;30529;53.570;9.964;2023-07-24T06:07:09;4.63;;;3.73;;
44816;SDS011;30529;53.570;9.964;2023-07-24T06:09:35;4.60;;;3.63;;
44816;SDS011;30529;53.570;9.964;2023-07-24T06:12:01;4.93;;;4.03;;
44816;SDS011;30529;53.570;9.964;2023-07-24T06:14:27;5.50;;;4.23;;
44816;SDS011;30529;53.570;9.964;2023-07-24T06:16:53;6.37;;;3.93;;
44816;SDS011;30529;53.570;9.964;2023-07-24T06:19:19;6.17;;;4.00;;
44816;SDS011;30529;53.570;9.964;2023-07-24T06:21:46;6.63;;;3.73;;
44816;SDS011;30529;53.570;9.964;2023-07-24T06:24:12;4.43;;;4.03;;
44816;SDS011;30529;53.570;9.964;2023-07-24T06:26:39;4.47;;;3.90;;
44816;SDS011;30529;53.570;9.964;2023-07-24T06:29:05;4.90;;;4.13;;
44816;SDS011;30529;53.570;9.964;2023-07-24T06:31:31;6.07;;;3.90;;
44816;SDS011;30529;53.570;9.964;2023-07-24T06:33:57;5.33;;;4.00;;
44816;SDS011;30529;53.570;9.964;2023-07-24T06:36:23;4.90;;;4.40;;
44816;SDS011;30529;53.570;9.964;2023-07-24T06:38:49;5.10;;;3.80;;
44816;SDS011;30529;53.570;9.964;2023-07-24T06:41:15;4.70;;;3.60;;
44816;SDS011;30529;53.570;9.964;2023-07-24T06:43:41;5.00;;;3.53;;
44816;SDS011;30529;53.570;9.964;2023-07-24T06:46:08;3.97;;;3.37;;
44816;SDS011;30529;53.570;9.964;2023-07-24T06:48:34;6.23;;;3.60;;
44816;SDS011;30529;53.570;9.964;2023-07-24T06:51:00;5.27;;;3.90;;
44816;SDS011;30529;53.570;9.964;2023-07-24T06:53:26;4.87;;;3.70;;
44816;SDS011;30529;53.570;9.964;2023-07-24T06:55:52;3.97;;;3.57;;
44816;SDS011;30529;53.570;9.964;2023-07-24T06:58:18;5.50;;;4.70;;
44816;SDS011;30529;53.570;9.964;2023-07-24T07:00:44;6.10;;;4.23;;
44816;SDS011;30529;53.570;9.964;2023-07-24T07:03:10;4.50;;;4.00;;
44816;SDS011;30529;53.570;9.964;2023-07-24T07:05:36;5.80;;;4.50;;
44816;SDS011;30529;53.570;9.964;2023-07-24T07:08:02;5.83;;;4.37;;
44816;SDS011;30529;53.570;9.964;2023-07-24T07:10:30;4.60;;;4.07;;
44816;SDS011;30529;53.570;9.964;2023-07-24T07:12:57;5.17;;;4.33;;
44816;SDS011;30529;53.570;9.964;2023-07-24T07:15:23;4.97;;;4.30;;
44816;SDS011;30529;53.570;9.964;2023-07-24T07:17:49;10.20;;;5.23;;
44816;SDS011;30529;53.570;9.964;2023-07-24T07:20:15;5.33;;;4.27;;
44816;SDS011;30529;53.570;9.964;2023-07-24T07:22:42;6.00;;;4.00;;
44816;SDS011;30529;53.570;9.964;2023-07-24T07:25:08;6.50;;;4.37;;
44816;SDS011;30529;53.570;9.964;2023-07-24T07:27:34;4.57;;;4.17;;
44816;SDS011;30529;53.570;9.964;2023-07-24T07:30:00;6.60;;;3.90;;
44816;SDS011;30529;53.570;9.964;2023-07-24T07:32:27;5.23;;;4.07;;
44816;SDS011;30529;53.570;9.964;2023-07-24T07:34:52;6.47;;;3.60;;
44816;SDS011;30529;53.570;9.964;2023-07-24T07:37:19;4.20;;;3.80;;
44816;SDS011;30529;53.570;9.964;2023-07-24T07:39:44;5.43;;;3.93;;
44816;SDS011;30529;53.570;9.964;2023-07-24T07:42:10;5.83;;;3.87;;
44816;SDS011;30529;53.570;9.964;2023-07-24T07:44:37;3.97;;;3.57;;
44816;SDS011;30529;53.570;9.964;2023-07-24T07:47:02;4.53;;;4.13;;
44816;SDS011;30529;53.570;9.964;2023-07-24T07:49:29;4.17;;;3.77;;
44816;SDS011;30529;53.570;9.964;2023-07-24T07:51:55;4.50;;;4.10;;
44816;SDS011;30529;53.570;9.964;2023-07-24T07:54:21;5.53;;;4.37;;
44816;SDS011;30529;53.570;9.964;2023-07-24T07:56:47;5.83;;;4.07;;
44816;SDS011;30529;53.570;9.964;2023-07-24T07:59:13;6.53;;;4.73;;
44816;SDS011;30529;53.570;9.964;2023-07-24T08:01:39;5.63;;;4.20;;
44816;SDS011;30529;53.570;9.964;2023-07-24T08:04:05;5.93;;;3.93;;
44816;SDS011;30529;53.570;9.964;2023-07-24T08:06:31;5.37;;;4.40;;
44816;SDS011;30529;53.570;9.964;2023-07-24T08:08:57;5.77;;;4.63;;
44816;SDS011;30529;53.570;9.964;2023-07-24T08:11:23;5.53;;;4.50;;
44816;SDS011;30529;53.570;9.964;2023-07-24T08:13:49;5.23;;;4.30;;
44816;SDS011;30529;53.570;9.964;2023-07-24T08:16:15;7.23;;;4.00;;
44816;SDS011;30529;53.570;9.964;2023-07-24T08:18:45;5.97;;;4.47;;
44816;SDS011;30529;53.570;9.964;2023-07-24T08:21:12;5.30;;;4.77;;
44816;SDS011;30529;53.570;9.964;2023-07-24T08:23:42;6.53;;;4.97;;
44816;SDS011;30529;53.570;9.964;2023-07-24T08:26:08;5.77;;;4.33;;
44816;SDS011;30529;53.570;9.964;2023-07-24T08:28:34;5.73;;;4.60;;
44816;SDS011;30529;53.570;9.964;2023-07-24T08:31:01;5.43;;;4.83;;
44816;SDS011;30529;53.570;9.964;2023-07-24T08:33:28;5.60;;;5.10;;
44816;SDS011;30529;53.570;9.964;2023-07-24T08:36:04;5.33;;;4.83;;
44816;SDS011;30529;53.570;9.964;2023-07-24T08:38:32;12.80;;;5.37;;
44816;SDS011;30529;53.570;9.964;2023-07-24T08:41:05;6.03;;;5.43;;
44816;SDS011;30529;53.570;9.964;2023-07-24T08:43:33;6.37;;;5.00;;
44816;SDS011;30529;53.570;9.964;2023-07-24T08:46:01;5.63;;;4.87;;
44816;SDS011;30529;53.570;9.964;2023-07-24T08:48:34;7.23;;;4.87;;
44816;SDS011;30529;53.570;9.964;2023-07-24T08:51:08;5.90;;;4.53;;
44816;SDS011;30529;53.570;9.964;2023-07-24T08:53:39;7.00;;;5.37;;
44816;SDS011;30529;53.570;9.964;2023-07-24T08:56:07;5.37;;;4.87;;
44816;SDS011;30529;53.570;9.964;2023-07-24T08:58:34;7.17;;;4.53;;
44816;SDS011;30529;53.570;9.964;2023-07-24T09:01:01;8.37;;;5.00;;
44816;SDS011;30529;53.570;9.964;2023-07-24T09:03:30;5.70;;;4.47;;
44816;SDS011;30529;53.570;9.964;2023-07-24T09:05:56;6.33;;;5.53;;
44816;SDS011;30529;53.570;9.964;2023-07-24T09:08:29;10.00;;;6.07;;
44816;SDS011;30529;53.570;9.964;2023-07-24T09:10:57;7.97;;;6.30;;
44816;SDS011;30529;53.570;9.964;2023-07-24T09:13:24;8.57;;;4.57;;
44816;SDS011;30529;53.570;9.964;2023-07-24T09:15:50;6.33;;;4.33;;
44816;SDS011;30529;53.570;9.964;2023-07-24T09:18:16;6.83;;;5.00;;
44816;SDS011;30529;53.570;9.964;2023-07-24T09:20:43;5.40;;;4.60;;
44816;SDS011;30529;53.570;9.964;2023-07-24T09:23:11;5.90;;;4.97;;
44816;SDS011;30529;53.570;9.964;2023-07-24T09:25:38;7.47;;;5.10;;
44816;SDS011;30529;53.570;9.964;2023-07-24T09:28:15;5.53;;;4.80;;
44816;SDS011;30529;53.570;9.964;2023-07-24T09:30:50;6.60;;;5.17;;
44816;SDS011;30529;53.570;9.964;2023-07-24T09:33:18;9.17;;;5.17;;
44816;SDS011;30529;53.570;9.964;2023-07-24T09:35:44;5.33;;;4.83;;
44816;SDS011;30529;53.570;9.964;2023-07-24T09:38:10;8.10;;;5.00;;
44816;SDS011;30529;53.570;9.964;2023-07-24T09:40:41;5.33;;;4.77;;
44816;SDS011;30529;53.570;9.964;2023-07-24T09:43:17;9.30;;;5.13;;
44816;SDS011;30529;53.570;9.964;2023-07-24T09:45:45;8.20;;;6.93;;
44816;SDS011;30529;53.570;9.964;2023-07-24T09:48:12;6.23;;;4.83;;
44816;SDS011;30529;53.570;9.964;2023-07-24T09:50:47;5.40;;;4.73;;
44816;SDS011;30529;53.570;9.964;2023-07-24T09:53:25;5.00;;;4.53;;
44816;SDS011;30529;53.570;9.964;2023-07-24T09:56:00;5.03;;;4.53;;
44816;SDS011;30529;53.570;9.964;2023-07-24T09:58:29;6.20;;;4.67;;
44816;SDS011;30529;53.570;9.964;2023-07-24T10:00:57;4.77;;;4.27;;
44816;SDS011;30529;53.570;9.964;2023-07-24T10:03:24;5.97;;;4.30;;
44816;SDS011;30529;53.570;9.964;2023-07-24T10:05:52;5.13;;;4.57;;
44816;SDS011;30529;53.570;9.964;2023-07-24T10:08:19;6.30;;;4.67;;
44816;SDS011;30529;53.570;9.964;2023-07-24T10:10:45;5.80;;;4.20;;
44816;SDS011;30529;53.570;9.964;2023-07-24T10:13:12;6.10;;;4.70;;
44816;SDS011;30529;53.570;9.964;2023-07-24T10:15:41;9.23;;;4.77;;
44816;SDS011;30529;53.570;9.964;2023-07-24T10:18:08;6.10;;;4.90;;
44816;SDS011;30529;53.570;9.964;2023-07-24T10:20:36;6.23;;;4.33;;
44816;SDS011;30529;53.570;9.964;2023-07-24T10:23:04;5.50;;;4.10;;
44816;SDS011;30529;53.570;9.964;2023-07-24T10:25:32;6.93;;;4.47;;
44816;SDS011;30529;53.570;9.964;2023-07-24T10:28:03;6.57;;;4.50;;
44816;SDS011;30529;53.570;9.964;2023-07-24T10:30:36;6.83;;;5.03;;
44816;SDS011;30529;53.570;9.964;2023-07-24T10:33:13;5.70;;;4.57;;
44816;SDS011;30529;53.570;9.964;2023-07-24T10:35:44;5.57;;;4.10;;
44816;SDS011;30529;53.570;9.964;2023-07-24T10:38:18;5.43;;;4.80;;
44816;SDS011;30529;53.570;9.964;2023-07-24T10:40:45;5.83;;;4.30;;
44816;SDS011;30529;53.570;9.964;2023-07-24T10:43:19;4.93;;;4.43;;
44816;SDS011;30529;53.570;9.964;2023-07-24T10:45:47;5.00;;;4.50;;
44816;SDS011;30529;53.570;9.964;2023-07-24T10:48:15;7.77;;;4.80;;
44816;SDS011;30529;53.570;9.964;2023-07-24T10:50:46;4.90;;;4.03;;
44816;SDS011;30529;53.570;9.964;2023-07-24T10:53:17;5.77;;;4.30;;
44816;SDS011;30529;53.570;9.964;2023-07-24T10:55:45;6.77;;;4.50;;
44816;SDS011;30529;53.570;9.964;2023-07-24T10:58:13;5.43;;;3.97;;
44816;SDS011;30529;53.570;9.964;2023-07-24T11:00:40;6.57;;;4.50;;
44816;SDS011;30529;53.570;9.964;2023-07-24T11:03:09;6.97;;;5.10;;
44816;SDS011;30529;53.570;9.964;2023-07-24T11:05:43;4.93;;;4.30;;
44816;SDS011;30529;53.570;9.964;2023-07-24T11:08:14;4.33;;;3.77;;
44816;SDS011;30529;53.570;9.964;2023-07-24T11:10:51;5.17;;;3.90;;
44816;SDS011;30529;53.570;9.964;2023-07-24T11:13:22;6.37;;;3.77;;
44816;SDS011;30529;53.570;9.964;2023-07-24T11:15:49;5.17;;;3.57;;
44816;SDS011;30529;53.570;9.964;2023-07-24T11:18:16;5.90;;;4.30;;
44816;SDS011;30529;53.570;9.964;2023-07-24T11:20:45;4.70;;;3.97;;
44816;SDS011;30529;53.570;9.964;2023-07-24T11:23:14;5.67;;;3.77;;
44816;SDS011;30529;53.570;9.964;2023-07-24T11:25:40;4.00;;;3.43;;
44816;SDS011;30529;53.570;9.964;2023-07-24T11:28:07;4.20;;;3.37;;
44816;SDS011;30529;53.570;9.964;2023-07-24T11:30:35;5.10;;;4.00;;
44816;SDS011;30529;53.570;9.964;2023-07-24T11:33:02;5.73;;;4.03;;
44816;SDS011;30529;53.570;9.964;2023-07-24T11:35:30;5.07;;;3.60;;
44816;SDS011;30529;53.570;9.964;2023-07-24T11:37:56;7.17;;;4.10;;
44816;SDS011;30529;53.570;9.964;2023-07-24T11:40:30;4.37;;;3.70;;
44816;SDS011;30529;53.570;9.964;2023-07-24T11:43:03;4.20;;;3.80;;
44816;SDS011;30529;53.570;9.964;2023-07-24T11:45:30;6.60;;;4.10;;
44816;SDS011;30529;53.570;9.964;2023-07-24T11:47:56;4.87;;;4.17;;
44816;SDS011;30529;53.570;9.964;2023-07-24T11:50:23;4.67;;;3.87;;
44816;SDS011;30529;53.570;9.964;2023-07-24T11:52:50;4.67;;;4.17;;
44816;SDS011;30529;53.570;9.964;2023-07-24T11:55:17;5.60;;;4.00;;
44816;SDS011;30529;53.570;9.964;2023-07-24T11:57:55;5.03;;;4.27;;
44816;SDS011;30529;53.570;9.964;2023-07-24T12:00:22;4.37;;;3.93;;
44816;SDS011;30529;53.570;9.964;2023-07-24T12:02:49;4.63;;;4.07;;
44816;SDS011;30529;53.570;9.964;2023-07-24T12:05:15;4.83;;;4.10;;
44816;SDS011;30529;53.570;9.964;2023-07-24T12:07:42;4.30;;;3.90;;
44816;SDS011;30529;53.570;9.964;2023-07-24T12:10:10;5.17;;;4.20;;
44816;SDS011;30529;53.570;9.964;2023-07-24T12:12:45;4.87;;;4.40;;
44816;SDS011;30529;53.570;9.964;2023-07-24T12:15:12;4.87;;;4.17;;
44816;SDS011;30529;53.570;9.964;2023-07-24T12:17:39;4.53;;;4.13;;
44816;SDS011;30529;53.570;9.964;2023-07-24T12:20:06;4.67;;;4.27;;
44816;SDS011;30529;53.570;9.964;2023-07-24T12:22:37;4.30;;;3.90;;
44816;SDS011;30529;53.570;9.964;2023-07-24T12:25:04;4.50;;;3.83;;
44816;SDS011;30529;53.570;9.964;2023-07-24T12:27:31;4.37;;;3.90;;
44816;SDS011;30529;53.570;9.964;2023-07-24T12:29:58;5.07;;;4.47;;
44816;SDS011;30529;53.570;9.964;2023-07-24T12:32:24;5.57;;;3.83;;
44816;SDS011;30529;53.570;9.964;2023-07-24T12:34:51;4.33;;;3.93;;
44816;SDS011;30529;53.570;9.964;2023-07-24T12:37:18;4.77;;;3.73;;
44816;SDS011;30529;53.570;9.964;2023-07-24T12:39:45;4.10;;;3.70;;
44816;SDS011;30529;53.570;9.964;2023-07-24T12:42:11;4.70;;;3.80;;
44816;SDS011;30529;53.570;9.964;2023-07-24T12:44:37;4.60;;;3.67;;
44816;SDS011;30529;53.570;9.964;2023-07-24T12:47:04;4.83;;;3.67;;
44816;SDS011;30529;53.570;9.964;2023-07-24T12:49:30;3.70;;;3.30;;
44816;SDS011;30529;53.570;9.964;2023-07-24T12:51:57;6.80;;;3.93;;
44816;SDS011;30529;53.570;9.964;2023-07-24T12:54:23;3.77;;;3.47;;
44816;SDS011;30529;53.570;9.964;2023-07-24T12:56:49;4.80;;;3.80;;
44816;SDS011;30529;53.570;9.964;2023-07-24T12:59:16;4.30;;;3.40;;
44816;SDS011;30529;53.570;9.964;2023-07-24T13:01:43;4.07;;;3.40;;
44816;SDS011;30529;53.570;9.964;2023-07-24T13:04:09;3.90;;;3.40;;
44816;SDS011;30529;53.570;9.964;2023-07-24T13:06:36;4.10;;;3.70;;
44816;SDS011;30529;53.570;9.964;2023-07-24T13:09:02;4.20;;;3.80;;
44816;SDS011;30529;53.570;9.964;2023-07-24T13:11:28;5.57;;;3.73;;
44816;SDS011;30529;53.570;9.964;2023-07-24T13:13:55;4.43;;;3.93;;
44816;SDS011;30529;53.570;9.964;2023-07-24T13:16:21;5.57;;;3.70;;
44816;SDS011;30529;53.570;9.964;2023-07-24T13:18:47;4.17;;;3.47;;
44816;SDS011;30529;53.570;9.964;2023-07-24T13:21:14;4.30;;;3.90;;
44816;SDS011;30529;53.570;9.964;2023-07-24T13:23:40;3.30;;;3.00;;
44816;SDS011;30529;53.570;9.964;2023-07-24T13:26:07;3.60;;;3.30;;
44816;SDS011;30529;53.570;9.964;2023-07-24T13:28:34;3.87;;;2.87;;
44816;SDS011;30529;53.570;9.964;2023-07-24T13:31:10;4.03;;;2.93;;
44816;SDS011;30529;53.570;9.964;2023-07-24T13:33:40;2.97;;;2.60;;
44816;SDS011;30529;53.570;9.964;2023-07-24T13:36:06;3.47;;;2.97;;
44816;SDS011;30529;53.570;9.964;2023-07-24T13:38:32;3.37;;;2.63;;
44816;SDS011;30529;53.570;9.964;2023-07-24T13:40:58;4.80;;;3.57;;
44816;SDS011;30529;53.570;9.964;2023-07-24T13:43:25;4.20;;;2.83;;
44816;SDS011;30529;53.570;9.964;2023-07-24T13:45:51;3.67;;;3.30;;
44816;SDS011;30529;53.570;9.964;2023-07-24T13:48:17;3.23;;;2.93;;
44816;SDS011;30529;53.570;9.964;2023-07-24T13:50:43;4.07;;;3.43;;
44816;SDS011;30529;53.570;9.964;2023-07-24T13:53:09;3.40;;;3.10;;
44816;SDS011;30529;53.570;9.964;2023-07-24T13:55:35;4.40;;;3.67;;
44816;SDS011;30529;53.570;9.964;2023-07-24T13:58:00;3.97;;;3.10;;
44816;SDS011;30529;53.570;9.964;2023-07-24T14:00:26;3.77;;;2.80;;
44816;SDS011;30529;53.570;9.964;2023-07-24T14:02:53;4.03;;;3.10;;
44816;SDS011;30529;53.570;9.964;2023-07-24T14:05:19;5.40;;;3.47;;
44816;SDS011;30529;53.570;9.964;2023-07-24T14:07:45;2.93;;;2.57;;
44816;SDS011;30529;53.570;9.964;2023-07-24T14:10:11;5.23;;;3.20;;
44816;SDS011;30529;53.570;9.964;2023-07-24T14:12:37;6.53;;;3.60;;
44816;SDS011;30529;53.570;9.964;2023-07-24T14:15:03;4.27;;;3.10;;
44816;SDS011;30529;53.570;9.964;2023-07-24T14:17:30;5.60;;;3.50;;
44816;SDS011;30529;53.570;9.964;2023-07-24T14:19:55;3.63;;;3.20;;
44816;SDS011;30529;53.570;9.964;2023-07-24T14:22:21;3.93;;;2.97;;
44816;SDS011;30529;53.570;9.964;2023-07-24T14:24:47;5.30;;;2.80;;
44816;SDS011;30529;53.570;9.964;2023-07-24T14:27:14;3.23;;;2.80;;
44816;SDS011;30529;53.570;9.964;2023-07-24T14:29:40;4.10;;;3.10;;
44816;SDS011;30529;53.570;9.964;2023-07-24T14:32:06;5.33;;;3.23;;
44816;SDS011;30529;53.570;9.964;2023-07-24T14:34:32;3.93;;;3.10;;
44816;SDS011;30529;53.570;9.964;2023-07-24T14:36:59;4.90;;;3.80;;
44816;SDS011;30529;53.570;9.964;2023-07-24T14:39:25;4.63;;;3.93;;
44816;SDS011;30529;53.570;9.964;2023-07-24T14:41:51;3.57;;;3.03;;
44816;SDS011;30529;53.570;9.964;2023-07-24T14:44:17;3.77;;;3.27;;
44816;SDS011;30529;53.570;9.964;2023-07-24T14:46:43;4.20;;;3.10;;
44816;SDS011;30529;53.570;9.964;2023-07-24T14:49:09;5.13;;;3.50;;
44816;SDS011;30529;53.570;9.964;2023-07-24T14:51:35;4.50;;;3.23;;